createdAt,value
2016-10-01T00:00:26.829Z,0.00
2016-10-01T00:01:27.337Z,0.00
2016-10-01T00:02:27.853Z,0.00
2016-10-01T00:03:28.365Z,0.00
2016-10-01T00:04:29.015Z,0.00
2016-10-01T00:05:29.383Z,0.00
2016-10-01T00:06:29.896Z,0.00
2016-10-01T00:07:30.411Z,0.00
2016-10-01T00:08:30.923Z,0.00
2016-10-01T00:09:31.434Z,0.00
2016-10-01T00:10:31.940Z,0.00
2016-10-01T00:11:32.452Z,0.00
2016-10-01T00:12:32.964Z,0.00
2016-10-01T00:13:33.474Z,0.00
2016-10-01T00:14:33.988Z,0.00
2016-10-01T00:15:34.530Z,0.00
2016-10-01T00:16:35.022Z,0.00
2016-10-01T00:17:35.536Z,0.00
2016-10-01T00:18:36.057Z,0.00
2016-10-01T00:19:36.569Z,0.00
2016-10-01T00:20:37.085Z,0.00
2016-10-01T00:21:37.596Z,0.00
2016-10-01T00:22:38.107Z,0.00
2016-10-01T00:23:38.615Z,0.00
2016-10-01T00:24:39.126Z,0.00
2016-10-01T00:25:39.644Z,0.00
2016-10-01T00:26:40.153Z,0.00
2016-10-01T00:27:40.664Z,0.10
2016-10-01T00:28:41.180Z,0.50
2016-10-01T00:29:41.687Z,0.10
2016-10-01T00:30:42.213Z,0.00
2016-10-01T00:31:42.717Z,0.00
2016-10-01T00:32:43.243Z,0.00
2016-10-01T00:33:43.749Z,0.00
2016-10-01T00:34:44.262Z,0.00
2016-10-01T00:35:44.790Z,0.10
2016-10-01T00:36:45.284Z,0.00
2016-10-01T00:37:45.792Z,0.00
2016-10-01T00:38:46.307Z,0.00
2016-10-01T00:39:46.827Z,0.00
2016-10-01T00:40:47.343Z,0.00
2016-10-01T00:41:47.997Z,0.00
2016-10-01T00:42:48.357Z,0.00
2016-10-01T00:43:48.874Z,0.00
2016-10-01T00:44:49.384Z,0.00
2016-10-01T00:45:49.898Z,0.00
2016-10-01T00:46:50.410Z,0.00
2016-10-01T00:47:50.929Z,0.00
2016-10-01T00:48:51.437Z,0.00
2016-10-01T00:49:51.948Z,0.00
2016-10-01T00:50:52.457Z,0.00
2016-10-01T00:51:52.970Z,0.00
2016-10-01T00:52:53.486Z,0.00
2016-10-01T00:53:54.003Z,0.00
2016-10-01T00:54:54.522Z,0.00
2016-10-01T00:55:55.039Z,0.00
2016-10-01T00:56:55.551Z,0.00
2016-10-01T00:57:56.068Z,0.00
2016-10-01T00:58:56.580Z,0.00
2016-10-01T00:59:57.099Z,0.00
2016-10-01T01:00:57.613Z,0.00
2016-10-01T01:01:58.126Z,0.20
2016-10-01T01:02:58.644Z,0.00
2016-10-01T01:03:59.169Z,0.00
2016-10-01T01:04:59.670Z,0.00
2016-10-01T01:06:00.180Z,0.00
2016-10-01T01:07:00.690Z,0.00
2016-10-01T01:08:01.200Z,0.00
2016-10-01T01:09:01.715Z,0.00
2016-10-01T01:10:02.223Z,0.00
2016-10-01T01:11:02.739Z,0.00
2016-10-01T01:12:03.252Z,0.00
2016-10-01T01:13:03.761Z,0.00
2016-10-01T01:14:04.273Z,0.00
2016-10-01T01:15:04.784Z,0.00
2016-10-01T01:16:05.441Z,0.00
2016-10-01T01:17:05.804Z,0.00
2016-10-01T01:18:06.315Z,0.00
2016-10-01T01:19:06.826Z,0.00
2016-10-01T01:20:07.336Z,0.00
2016-10-01T01:21:07.852Z,0.00
2016-10-01T01:22:08.400Z,0.00
2016-10-01T01:23:08.877Z,0.00
2016-10-01T01:24:09.391Z,0.00
2016-10-01T01:25:10.054Z,0.00
2016-10-01T01:26:10.416Z,0.00
2016-10-01T01:27:10.933Z,0.00
2016-10-01T01:28:11.437Z,0.00
2016-10-01T01:29:11.958Z,0.00
2016-10-01T01:30:12.464Z,0.00
2016-10-01T01:31:12.984Z,0.00
2016-10-01T01:32:13.495Z,0.00
2016-10-01T01:33:14.006Z,0.00
2016-10-01T01:34:14.517Z,0.00
2016-10-01T01:35:15.034Z,0.00
2016-10-01T01:36:15.539Z,0.00
2016-10-01T01:37:16.117Z,0.00
2016-10-01T01:38:16.590Z,0.00
2016-10-01T01:39:17.079Z,0.00
2016-10-01T01:40:17.590Z,0.00
2016-10-01T01:41:18.101Z,0.00
2016-10-01T01:42:18.618Z,0.00
2016-10-01T01:43:19.125Z,0.00
2016-10-01T01:44:19.637Z,0.00
2016-10-01T01:45:20.149Z,0.00
2016-10-01T01:46:20.816Z,0.00
2016-10-01T01:47:21.174Z,0.00
2016-10-01T01:48:21.689Z,0.00
2016-10-01T01:49:22.208Z,0.00
2016-10-01T01:50:22.711Z,0.00
2016-10-01T01:51:23.245Z,0.00
2016-10-01T01:52:23.763Z,0.00
2016-10-01T01:53:24.253Z,0.00
2016-10-01T01:54:24.765Z,0.00
2016-10-01T01:55:25.275Z,0.00
2016-10-01T01:56:25.785Z,0.00
2016-10-01T01:57:26.299Z,0.00
2016-10-01T01:58:26.810Z,0.00
2016-10-01T01:59:27.479Z,0.00
2016-10-01T02:00:27.827Z,0.00
2016-10-01T02:01:28.343Z,0.00
2016-10-01T02:02:28.861Z,0.00
2016-10-01T02:03:29.398Z,0.00
2016-10-01T02:04:29.882Z,0.00
2016-10-01T02:05:30.393Z,0.00
2016-10-01T02:06:30.906Z,0.00
2016-10-01T02:07:31.421Z,0.00
2016-10-01T02:08:31.941Z,0.00
2016-10-01T02:09:32.461Z,0.00
2016-10-01T02:10:32.983Z,0.00
2016-10-01T02:11:33.639Z,0.00
2016-10-01T02:12:34.004Z,0.00
2016-10-01T02:13:34.514Z,0.00
2016-10-01T02:14:35.025Z,0.00
2016-10-01T02:15:35.539Z,0.00
2016-10-01T02:16:36.055Z,0.00
2016-10-01T02:17:36.568Z,0.00
2016-10-01T02:18:37.080Z,0.00
2016-10-01T02:19:37.586Z,0.00
2016-10-01T02:20:38.099Z,0.00
2016-10-01T02:21:38.616Z,0.00
2016-10-01T02:22:39.129Z,0.00
2016-10-01T02:23:39.643Z,0.00
2016-10-01T02:24:40.157Z,0.00
2016-10-01T02:25:40.674Z,0.00
2016-10-01T02:26:41.183Z,0.00
2016-10-01T02:27:41.696Z,0.00
2016-10-01T02:28:42.357Z,0.00
2016-10-01T02:29:42.731Z,0.00
2016-10-01T02:30:43.241Z,0.00
2016-10-01T02:31:43.748Z,0.00
2016-10-01T02:32:44.264Z,0.00
2016-10-01T02:33:44.775Z,0.00
2016-10-01T02:34:45.284Z,0.00
2016-10-01T02:35:45.793Z,0.00
2016-10-01T02:36:46.308Z,0.00
2016-10-01T02:37:46.822Z,0.00
2016-10-01T02:38:47.342Z,0.00
2016-10-01T02:39:47.851Z,0.00
2016-10-01T02:40:48.362Z,0.00
2016-10-01T02:41:49.173Z,0.00
2016-10-01T02:42:49.389Z,0.00
2016-10-01T02:43:49.902Z,0.00
2016-10-01T02:44:50.417Z,0.00
2016-10-01T02:45:51.079Z,0.00
2016-10-01T02:46:51.448Z,0.00
2016-10-01T02:47:53.764Z,0.00
2016-10-01T02:48:52.472Z,0.00
2016-10-01T02:49:52.988Z,0.00
2016-10-01T02:50:53.491Z,0.00
2016-10-01T02:51:54.170Z,0.00
2016-10-01T02:52:54.515Z,0.00
2016-10-01T02:53:55.030Z,0.10
2016-10-01T02:54:55.537Z,0.00
2016-10-01T02:55:56.051Z,0.00
2016-10-01T02:56:56.560Z,0.00
2016-10-01T02:57:57.071Z,0.00
2016-10-01T02:58:57.582Z,0.10
2016-10-01T02:59:58.094Z,0.10
2016-10-01T03:00:58.612Z,0.70
2016-10-01T03:01:59.135Z,0.30
2016-10-01T03:02:59.629Z,0.30
2016-10-01T03:04:00.175Z,0.20
2016-10-01T03:05:00.671Z,0.40
2016-10-01T03:06:01.169Z,0.20
2016-10-01T03:07:01.678Z,0.40
2016-10-01T03:08:02.191Z,0.20
2016-10-01T03:09:02.697Z,0.40
2016-10-01T03:10:03.216Z,0.20
2016-10-01T03:11:03.742Z,0.20
2016-10-01T03:12:04.231Z,0.10
2016-10-01T03:13:04.895Z,0.10
2016-10-01T03:14:05.265Z,0.40
2016-10-01T03:15:05.767Z,0.00
2016-10-01T03:16:06.281Z,0.00
2016-10-01T03:17:06.793Z,0.00
2016-10-01T03:18:07.304Z,0.00
2016-10-01T03:19:07.811Z,0.00
2016-10-01T03:20:08.326Z,0.00
2016-10-01T03:21:08.842Z,0.00
2016-10-01T03:22:09.351Z,0.00
2016-10-01T03:23:09.875Z,0.00
2016-10-01T03:24:10.393Z,0.00
2016-10-01T03:25:10.944Z,0.00
2016-10-01T03:26:11.478Z,0.00
2016-10-01T03:27:11.926Z,0.00
2016-10-01T03:28:12.451Z,0.10
2016-10-01T03:29:12.956Z,0.00
2016-10-01T03:30:13.477Z,0.00
2016-10-01T03:31:13.995Z,0.00
2016-10-01T03:32:14.511Z,0.00
2016-10-01T03:33:15.009Z,0.00
2016-10-01T03:34:15.520Z,0.00
2016-10-01T03:35:16.027Z,0.00
2016-10-01T03:36:16.541Z,0.00
2016-10-01T03:37:17.052Z,0.00
2016-10-01T03:38:17.580Z,0.00
2016-10-01T03:39:18.073Z,0.00
2016-10-01T03:40:18.583Z,0.00
2016-10-01T03:41:19.097Z,0.00
2016-10-01T03:42:19.609Z,0.00
2016-10-01T03:43:20.121Z,0.00
2016-10-01T03:44:20.646Z,0.00
2016-10-01T03:45:21.150Z,0.00
2016-10-01T03:46:21.676Z,0.00
2016-10-01T03:47:22.179Z,0.00
2016-10-01T03:48:22.690Z,0.00
2016-10-01T03:49:23.209Z,0.00
2016-10-01T03:50:23.868Z,0.00
2016-10-01T03:51:24.231Z,0.00
2016-10-01T03:52:24.746Z,0.00
2016-10-01T03:53:25.257Z,0.00
2016-10-01T03:54:25.768Z,0.00
2016-10-01T03:55:26.284Z,0.00
2016-10-01T03:56:26.796Z,0.00
2016-10-01T03:57:27.310Z,0.00
2016-10-01T03:58:27.826Z,0.00
2016-10-01T03:59:28.343Z,0.00
2016-10-01T04:00:28.878Z,0.00
2016-10-01T04:01:29.374Z,0.00
2016-10-01T04:02:29.889Z,0.00
2016-10-01T04:03:30.399Z,0.00
2016-10-01T04:04:30.910Z,0.00
2016-10-01T04:05:31.421Z,0.00
2016-10-01T04:06:31.938Z,0.00
2016-10-01T04:07:32.447Z,0.00
2016-10-01T04:08:32.955Z,0.00
2016-10-01T04:09:33.479Z,0.00
2016-10-01T04:10:33.977Z,0.00
2016-10-01T04:11:34.485Z,0.00
2016-10-01T04:12:34.996Z,0.00
2016-10-01T04:13:35.503Z,0.00
2016-10-01T04:14:36.016Z,0.00
2016-10-01T04:15:36.526Z,0.00
2016-10-01T04:16:37.034Z,0.00
2016-10-01T04:17:37.548Z,0.00
2016-10-01T04:18:38.226Z,0.00
2016-10-01T04:19:38.569Z,0.00
2016-10-01T04:20:39.087Z,0.00
2016-10-01T04:21:39.597Z,0.00
2016-10-01T04:22:40.115Z,0.00
2016-10-01T04:23:40.631Z,0.00
2016-10-01T04:24:41.140Z,0.00
2016-10-01T04:25:41.641Z,0.00
2016-10-01T04:26:42.150Z,0.00
2016-10-01T04:27:42.677Z,0.00
2016-10-01T04:28:43.173Z,0.00
2016-10-01T04:29:43.689Z,0.00
2016-10-01T04:30:44.194Z,0.00
2016-10-01T04:31:44.707Z,0.00
2016-10-01T04:32:45.219Z,0.00
2016-10-01T04:33:45.729Z,0.00
2016-10-01T04:34:46.243Z,0.00
2016-10-01T04:35:46.758Z,0.00
2016-10-01T04:36:47.274Z,0.00
2016-10-01T04:37:47.787Z,0.00
2016-10-01T04:38:48.303Z,0.00
2016-10-01T04:39:48.818Z,0.00
2016-10-01T04:40:49.332Z,0.00
2016-10-01T04:41:49.841Z,0.00
2016-10-01T04:42:50.363Z,0.00
2016-10-01T04:43:50.871Z,0.00
2016-10-01T04:44:51.386Z,0.10
2016-10-01T04:45:51.895Z,0.00
2016-10-01T04:46:52.406Z,0.00
2016-10-01T04:47:52.921Z,0.10
2016-10-01T04:48:53.438Z,0.10
2016-10-01T04:49:53.957Z,0.20
2016-10-01T04:50:54.464Z,0.20
2016-10-01T04:51:55.139Z,0.10
2016-10-01T04:52:55.513Z,0.00
2016-10-01T04:53:55.998Z,0.10
2016-10-01T04:54:56.511Z,0.00
2016-10-01T04:55:57.023Z,0.00
2016-10-01T04:56:57.538Z,0.00
2016-10-01T04:57:58.045Z,0.00
2016-10-01T04:58:58.565Z,0.10
2016-10-01T04:59:59.080Z,0.00
2016-10-01T05:00:59.608Z,0.00
2016-10-01T05:02:00.100Z,0.00
2016-10-01T05:03:00.607Z,0.00
2016-10-01T05:04:01.120Z,0.00
2016-10-01T05:05:01.641Z,0.00
2016-10-01T05:06:02.147Z,0.20
2016-10-01T05:07:02.656Z,0.20
2016-10-01T05:08:03.169Z,0.00
2016-10-01T05:09:03.682Z,0.00
2016-10-01T05:10:04.197Z,0.00
2016-10-01T05:11:04.717Z,0.00
2016-10-01T05:12:05.230Z,0.00
2016-10-01T05:13:05.747Z,0.00
2016-10-01T05:14:06.413Z,0.00
2016-10-01T05:15:06.781Z,0.00
2016-10-01T05:16:07.298Z,0.00
2016-10-01T05:17:07.811Z,0.00
2016-10-01T05:18:08.327Z,0.00
2016-10-01T05:19:08.835Z,0.00
2016-10-01T05:20:09.346Z,0.00
2016-10-01T05:21:09.858Z,0.10
2016-10-01T05:22:10.370Z,0.00
2016-10-01T05:23:11.044Z,0.00
2016-10-01T05:24:11.398Z,0.00
2016-10-01T05:25:11.909Z,0.00
2016-10-01T05:26:12.424Z,0.00
2016-10-01T05:27:12.933Z,0.00
2016-10-01T05:28:13.442Z,0.00
2016-10-01T05:29:13.953Z,0.00
2016-10-01T05:30:14.464Z,0.00
2016-10-01T05:31:14.979Z,0.00
2016-10-01T05:32:15.486Z,0.00
2016-10-01T05:33:15.999Z,0.00
2016-10-01T05:34:16.510Z,0.00
2016-10-01T05:35:17.023Z,0.00
2016-10-01T05:36:17.684Z,0.00
2016-10-01T05:37:18.048Z,0.00
2016-10-01T05:38:18.566Z,0.00
2016-10-01T05:39:19.077Z,0.00
2016-10-01T05:40:19.738Z,0.00
2016-10-01T05:41:20.124Z,0.00
2016-10-01T05:42:20.606Z,0.00
2016-10-01T05:43:21.117Z,0.30
2016-10-01T05:44:21.632Z,1.00
2016-10-01T05:45:22.139Z,0.80
2016-10-01T05:46:22.801Z,0.00
2016-10-01T05:47:23.161Z,0.10
2016-10-01T05:48:23.672Z,0.00
2016-10-01T05:49:24.337Z,0.00
2016-10-01T05:50:24.701Z,0.00
2016-10-01T05:51:25.219Z,0.00
2016-10-01T05:52:25.742Z,0.00
2016-10-01T05:53:26.251Z,0.00
2016-10-01T05:54:26.767Z,0.10
2016-10-01T05:55:27.580Z,0.00
2016-10-01T05:56:27.789Z,0.00
2016-10-01T05:57:28.303Z,0.20
2016-10-01T05:58:28.812Z,0.30
2016-10-01T05:59:29.324Z,0.20
2016-10-01T06:00:29.835Z,0.30
2016-10-01T06:01:30.344Z,0.50
2016-10-01T06:02:30.859Z,0.70
2016-10-01T06:03:31.375Z,0.50
2016-10-01T06:04:31.884Z,0.30
2016-10-01T06:05:32.400Z,0.40
2016-10-01T06:06:32.918Z,0.40
2016-10-01T06:07:33.427Z,0.40
2016-10-01T06:08:33.939Z,0.50
2016-10-01T06:09:34.450Z,1.00
2016-10-01T06:10:34.963Z,0.80
2016-10-01T06:11:35.479Z,0.60
2016-10-01T06:12:35.991Z,1.10
2016-10-01T06:13:36.502Z,0.50
2016-10-01T06:14:37.014Z,0.40
2016-10-01T06:15:37.524Z,0.40
2016-10-01T06:16:38.034Z,0.60
2016-10-01T06:17:38.546Z,0.40
2016-10-01T06:18:39.058Z,0.30
2016-10-01T06:19:39.582Z,0.30
2016-10-01T06:20:40.088Z,0.20
2016-10-01T06:21:40.597Z,0.00
2016-10-01T06:22:41.270Z,0.00
2016-10-01T06:23:41.617Z,0.00
2016-10-01T06:24:42.133Z,0.00
2016-10-01T06:25:42.639Z,0.00
2016-10-01T06:26:43.154Z,0.00
2016-10-01T06:27:43.817Z,0.00
2016-10-01T06:28:44.185Z,0.00
2016-10-01T06:29:44.705Z,0.00
2016-10-01T06:30:45.217Z,0.00
2016-10-01T06:31:45.755Z,0.00
2016-10-01T06:32:46.249Z,0.00
2016-10-01T06:33:46.764Z,0.00
2016-10-01T06:34:47.277Z,0.00
2016-10-01T06:35:47.793Z,0.00
2016-10-01T06:36:48.301Z,0.00
2016-10-01T06:37:48.823Z,0.00
2016-10-01T06:38:49.325Z,0.00
2016-10-01T06:39:49.842Z,0.00
2016-10-01T06:40:50.351Z,0.00
2016-10-01T06:41:50.859Z,0.00
2016-10-01T06:42:51.370Z,0.00
2016-10-01T06:43:51.882Z,0.00
2016-10-01T06:44:52.390Z,0.00
2016-10-01T06:45:52.903Z,0.00
2016-10-01T06:46:53.415Z,0.00
2016-10-01T06:47:53.923Z,0.00
2016-10-01T06:48:54.435Z,0.00
2016-10-01T06:49:54.978Z,0.00
2016-10-01T06:50:55.476Z,0.00
2016-10-01T06:51:55.994Z,0.00
2016-10-01T06:52:56.521Z,0.00
2016-10-01T06:53:57.030Z,0.00
2016-10-01T06:54:57.547Z,0.00
2016-10-01T06:55:58.064Z,0.00
2016-10-01T06:56:58.576Z,0.00
2016-10-01T06:57:59.094Z,0.00
2016-10-01T06:58:59.600Z,0.00
2016-10-01T07:00:00.131Z,0.00
2016-10-01T07:01:00.653Z,0.00
2016-10-01T07:02:01.146Z,0.00
2016-10-01T07:03:01.656Z,0.00
2016-10-01T07:04:02.159Z,0.00
2016-10-01T07:05:02.671Z,0.00
2016-10-01T07:06:03.188Z,0.30
2016-10-01T07:07:03.703Z,0.00
2016-10-01T07:08:04.216Z,0.10
2016-10-01T07:09:04.876Z,0.00
2016-10-01T07:10:05.237Z,0.00
2016-10-01T07:11:05.753Z,0.00
2016-10-01T07:12:06.265Z,0.00
2016-10-01T07:13:06.774Z,0.00
2016-10-01T07:14:07.296Z,0.00
2016-10-01T07:15:07.819Z,0.00
2016-10-01T07:16:08.319Z,0.00
2016-10-01T07:17:08.829Z,0.00
2016-10-01T07:18:09.349Z,0.00
2016-10-01T07:19:09.877Z,0.00
2016-10-01T07:20:10.366Z,0.00
2016-10-01T07:21:10.883Z,0.00
2016-10-01T07:22:11.404Z,0.00
2016-10-01T07:23:11.915Z,0.00
2016-10-01T07:24:12.424Z,0.00
2016-10-01T07:25:12.933Z,0.00
2016-10-01T07:26:13.455Z,0.00
2016-10-01T07:27:13.953Z,0.00
2016-10-01T07:28:14.469Z,0.00
2016-10-01T07:29:14.978Z,0.00
2016-10-01T07:30:15.490Z,0.00
2016-10-01T07:31:15.999Z,0.00
2016-10-01T07:32:16.509Z,0.00
2016-10-01T07:33:17.020Z,0.00
2016-10-01T07:34:17.535Z,0.00
2016-10-01T07:35:18.043Z,0.00
2016-10-01T07:36:18.559Z,0.00
2016-10-01T07:37:19.070Z,0.00
2016-10-01T07:38:19.582Z,0.00
2016-10-01T07:39:20.093Z,0.00
2016-10-01T07:40:20.642Z,0.00
2016-10-01T07:41:21.135Z,0.00
2016-10-01T07:42:21.636Z,0.00
2016-10-01T07:43:22.153Z,0.00
2016-10-01T07:44:22.674Z,0.00
2016-10-01T07:45:23.187Z,0.00
2016-10-01T07:46:23.699Z,0.00
2016-10-01T07:47:24.208Z,0.00
2016-10-01T07:48:24.720Z,0.00
2016-10-01T07:49:25.392Z,0.00
2016-10-01T07:50:25.896Z,0.00
2016-10-01T07:51:26.263Z,0.00
2016-10-01T07:52:26.776Z,0.00
2016-10-01T07:53:27.280Z,0.00
2016-10-01T07:54:27.791Z,0.00
2016-10-01T07:55:28.306Z,0.00
2016-10-01T07:56:28.818Z,0.00
2016-10-01T07:57:29.333Z,0.00
2016-10-01T07:58:29.847Z,0.00
2016-10-01T07:59:30.360Z,0.00
2016-10-01T08:00:30.904Z,0.00
2016-10-01T08:01:31.385Z,0.00
2016-10-01T08:02:31.901Z,0.00
2016-10-01T08:03:32.410Z,0.00
2016-10-01T08:04:32.945Z,0.00
2016-10-01T08:05:33.438Z,0.00
2016-10-01T08:06:33.947Z,0.00
2016-10-01T08:07:34.460Z,0.00
2016-10-01T08:08:34.971Z,0.00
2016-10-01T08:09:35.484Z,0.00
2016-10-01T08:10:35.993Z,0.00
2016-10-01T08:11:36.508Z,0.00
2016-10-01T08:12:37.017Z,0.00
2016-10-01T08:13:37.528Z,0.00
2016-10-01T08:14:38.045Z,0.00
2016-10-01T08:15:38.552Z,0.00
2016-10-01T08:16:39.067Z,0.00
2016-10-01T08:17:39.732Z,0.00
2016-10-01T08:18:40.102Z,0.00
2016-10-01T08:19:40.620Z,0.20
2016-10-01T08:20:41.161Z,0.00
2016-10-01T08:21:41.670Z,0.00
2016-10-01T08:22:42.158Z,0.10
2016-10-01T08:23:42.675Z,0.20
2016-10-01T08:24:43.185Z,0.20
2016-10-01T08:25:43.695Z,0.10
2016-10-01T08:26:44.206Z,0.00
2016-10-01T08:27:44.881Z,0.00
2016-10-01T08:28:45.230Z,0.00
2016-10-01T08:29:45.890Z,0.00
2016-10-01T08:30:46.248Z,0.00
2016-10-01T08:31:46.756Z,0.10
2016-10-01T08:32:47.420Z,0.30
2016-10-01T08:33:47.780Z,0.50
2016-10-01T08:34:48.294Z,0.90
2016-10-01T08:35:48.800Z,0.20
2016-10-01T08:36:49.318Z,0.40
2016-10-01T08:37:49.836Z,0.70
2016-10-01T08:38:50.354Z,0.30
2016-10-01T08:39:50.847Z,0.30
2016-10-01T08:40:51.363Z,0.40
2016-10-01T08:41:51.876Z,0.70
2016-10-01T08:42:52.386Z,1.80
2016-10-01T08:43:52.904Z,1.90
2016-10-01T08:44:53.409Z,1.30
2016-10-01T08:45:53.928Z,1.40
2016-10-01T08:46:54.436Z,1.40
2016-10-01T08:47:54.944Z,0.80
2016-10-01T08:48:55.459Z,1.70
2016-10-01T08:49:55.966Z,1.80
2016-10-01T08:50:56.501Z,2.00
2016-10-01T08:51:56.988Z,1.30
2016-10-01T08:52:57.509Z,1.10
2016-10-01T08:53:58.055Z,0.80
2016-10-01T08:54:58.527Z,0.50
2016-10-01T08:55:59.049Z,0.20
2016-10-01T08:57:00.463Z,0.20
2016-10-01T08:58:00.071Z,0.50
2016-10-01T08:59:00.586Z,0.50
2016-10-01T09:00:01.151Z,0.50
2016-10-01T09:01:01.763Z,0.30
2016-10-01T09:02:02.127Z,0.30
2016-10-01T09:03:02.640Z,0.20
2016-10-01T09:04:03.157Z,0.20
2016-10-01T09:05:03.667Z,0.10
2016-10-01T09:06:04.177Z,0.00
2016-10-01T09:07:04.689Z,0.00
2016-10-01T09:08:05.210Z,0.10
2016-10-01T09:09:05.863Z,0.10
2016-10-01T09:10:06.226Z,0.00
2016-10-01T09:11:06.756Z,0.10
2016-10-01T09:12:07.247Z,0.20
2016-10-01T09:13:07.760Z,0.00
2016-10-01T09:14:08.276Z,0.00
2016-10-01T09:15:08.782Z,0.00
2016-10-01T09:16:09.298Z,0.00
2016-10-01T09:17:09.812Z,0.00
2016-10-01T09:18:10.468Z,0.00
2016-10-01T09:19:10.834Z,0.00
2016-10-01T09:20:11.359Z,0.00
2016-10-01T09:21:11.860Z,0.00
2016-10-01T09:22:12.377Z,0.00
2016-10-01T09:23:12.881Z,0.00
2016-10-01T09:24:13.393Z,0.00
2016-10-01T09:25:13.904Z,0.00
2016-10-01T09:26:14.419Z,0.00
2016-10-01T09:27:15.088Z,0.00
2016-10-01T09:28:15.450Z,0.00
2016-10-01T09:29:15.971Z,0.10
2016-10-01T09:30:16.478Z,0.00
2016-10-01T09:31:16.992Z,0.00
2016-10-01T09:32:17.512Z,0.00
2016-10-01T09:33:18.021Z,0.00
2016-10-01T09:34:18.539Z,0.00
2016-10-01T09:35:19.051Z,0.00
2016-10-01T09:36:19.565Z,0.00
2016-10-01T09:37:20.081Z,0.00
2016-10-01T09:38:20.643Z,0.00
2016-10-01T09:39:21.103Z,0.00
2016-10-01T09:40:21.613Z,0.00
2016-10-01T09:41:22.303Z,0.00
2016-10-01T09:42:22.638Z,0.00
2016-10-01T09:43:23.150Z,0.00
2016-10-01T09:44:23.660Z,0.00
2016-10-01T09:45:24.168Z,0.00
2016-10-01T09:46:24.677Z,0.00
2016-10-01T09:47:25.188Z,0.20
2016-10-01T09:48:25.697Z,0.00
2016-10-01T09:49:26.213Z,0.00
2016-10-01T09:50:26.885Z,0.20
2016-10-01T09:51:27.254Z,0.00
2016-10-01T09:52:27.749Z,0.10
2016-10-01T09:53:28.264Z,0.10
2016-10-01T09:54:28.771Z,0.10
2016-10-01T09:55:29.284Z,0.20
2016-10-01T09:56:29.792Z,0.20
2016-10-01T09:57:30.304Z,0.20
2016-10-01T09:58:30.820Z,0.20
2016-10-01T09:59:31.328Z,0.10
2016-10-01T10:00:31.838Z,0.20
2016-10-01T10:01:32.350Z,0.20
2016-10-01T10:02:32.872Z,0.00
2016-10-01T10:03:33.369Z,0.00
2016-10-01T10:04:33.884Z,0.00
2016-10-01T10:05:34.401Z,0.00
2016-10-01T10:06:34.907Z,0.20
2016-10-01T10:07:35.431Z,0.00
2016-10-01T10:08:35.929Z,0.00
2016-10-01T10:09:36.444Z,0.00
2016-10-01T10:10:36.961Z,0.00
2016-10-01T10:11:37.475Z,0.00
2016-10-01T10:12:37.992Z,0.00
2016-10-01T10:13:38.508Z,0.00
2016-10-01T10:14:39.025Z,0.10
2016-10-01T10:15:39.532Z,0.10
2016-10-01T10:16:40.037Z,0.00
2016-10-01T10:17:40.549Z,0.10
2016-10-01T10:18:41.059Z,0.00
2016-10-01T10:19:41.575Z,0.00
2016-10-01T10:20:42.089Z,0.10
2016-10-01T10:21:42.602Z,0.10
2016-10-01T10:22:43.264Z,0.30
2016-10-01T10:23:43.627Z,0.00
2016-10-01T10:24:44.172Z,0.30
2016-10-01T10:25:44.655Z,0.00
2016-10-01T10:26:45.164Z,0.00
2016-10-01T10:27:45.679Z,0.00
2016-10-01T10:28:47.087Z,0.20
2016-10-01T10:29:46.705Z,0.20
2016-10-01T10:30:47.209Z,0.30
2016-10-01T10:31:47.723Z,0.00
2016-10-01T10:32:48.232Z,0.00
2016-10-01T10:33:48.898Z,0.00
2016-10-01T10:34:49.260Z,0.10
2016-10-01T10:35:49.770Z,0.00
2016-10-01T10:36:50.278Z,0.00
2016-10-01T10:37:50.790Z,0.00
2016-10-01T10:38:51.305Z,0.00
2016-10-01T10:39:51.811Z,0.10
2016-10-01T10:40:52.316Z,0.20
2016-10-01T10:41:52.828Z,0.00
2016-10-01T10:42:53.348Z,0.00
2016-10-01T10:43:53.855Z,0.20
2016-10-01T10:44:54.371Z,0.10
2016-10-01T10:45:54.880Z,0.00
2016-10-01T10:46:55.546Z,0.10
2016-10-01T10:47:55.915Z,0.10
2016-10-01T10:48:56.434Z,0.10
2016-10-01T10:49:56.956Z,0.10
2016-10-01T10:50:57.471Z,0.00
2016-10-01T10:51:57.987Z,0.00
2016-10-01T10:52:58.494Z,0.10
2016-10-01T10:53:59.006Z,0.00
2016-10-01T10:54:59.519Z,0.10
2016-10-01T10:56:00.028Z,0.30
2016-10-01T10:57:00.545Z,0.20
2016-10-01T10:58:01.055Z,0.10
2016-10-01T10:59:01.568Z,0.40
2016-10-01T11:00:02.080Z,0.80
2016-10-01T11:01:02.612Z,0.50
2016-10-01T11:02:03.105Z,0.70
2016-10-01T11:03:03.611Z,0.30
2016-10-01T11:04:04.127Z,0.10
2016-10-01T11:05:04.648Z,0.40
2016-10-01T11:06:05.154Z,0.60
2016-10-01T11:07:05.812Z,0.20
2016-10-01T11:08:06.174Z,0.40
2016-10-01T11:09:06.701Z,0.80
2016-10-01T11:10:07.203Z,0.40
2016-10-01T11:11:07.710Z,0.50
2016-10-01T11:12:08.222Z,0.40
2016-10-01T11:13:08.730Z,0.30
2016-10-01T11:14:09.246Z,0.30
2016-10-01T11:15:09.758Z,0.60
2016-10-01T11:16:10.285Z,0.70
2016-10-01T11:17:10.782Z,1.00
2016-10-01T11:18:11.297Z,1.00
2016-10-01T11:19:11.805Z,0.50
2016-10-01T11:20:12.315Z,0.20
2016-10-01T11:21:12.829Z,0.60
2016-10-01T11:22:13.340Z,0.60
2016-10-01T11:23:13.881Z,0.90
2016-10-01T11:24:14.355Z,1.10
2016-10-01T11:25:14.871Z,0.90
2016-10-01T11:26:15.387Z,0.70
2016-10-01T11:27:15.903Z,0.90
2016-10-01T11:28:16.426Z,0.50
2016-10-01T11:29:16.950Z,0.70
2016-10-01T11:30:17.460Z,0.90
2016-10-01T11:31:17.973Z,0.70
2016-10-01T11:32:18.459Z,0.60
2016-10-01T11:33:18.970Z,0.60
2016-10-01T11:34:20.830Z,0.60
2016-10-01T11:35:19.990Z,0.80
2016-10-01T11:36:20.512Z,0.80
2016-10-01T11:37:21.008Z,0.70
2016-10-01T11:38:21.518Z,1.40
2016-10-01T11:39:22.028Z,1.40
2016-10-01T11:40:22.542Z,1.40
2016-10-01T11:41:23.054Z,1.10
2016-10-01T11:42:23.564Z,1.10
2016-10-01T11:43:24.078Z,1.30
2016-10-01T11:44:24.602Z,0.70
2016-10-01T11:45:25.103Z,0.70
2016-10-01T11:46:25.624Z,1.00
2016-10-01T11:47:26.137Z,0.90
2016-10-01T11:48:26.645Z,1.00
2016-10-01T11:49:27.156Z,0.50
2016-10-01T11:50:27.667Z,0.70
2016-10-01T11:51:28.212Z,1.60
2016-10-01T11:52:28.846Z,1.20
2016-10-01T11:53:29.203Z,1.10
2016-10-01T11:54:29.736Z,1.20
2016-10-01T11:55:30.224Z,0.80
2016-10-01T11:56:30.734Z,0.70
2016-10-01T11:57:31.252Z,1.00
2016-10-01T11:58:31.761Z,1.00
2016-10-01T11:59:32.270Z,0.70
2016-10-01T12:00:32.931Z,0.80
2016-10-01T12:01:33.304Z,0.80
2016-10-01T12:02:33.813Z,1.30
2016-10-01T12:03:34.337Z,0.70
2016-10-01T12:04:34.998Z,0.60
2016-10-01T12:05:35.356Z,0.80
2016-10-01T12:06:35.873Z,1.40
2016-10-01T12:07:36.382Z,0.90
2016-10-01T12:08:36.894Z,0.50
2016-10-01T12:09:37.410Z,1.20
2016-10-01T12:10:37.925Z,0.40
2016-10-01T12:11:38.457Z,1.20
2016-10-01T12:12:38.955Z,0.80
2016-10-01T12:13:39.468Z,0.60
2016-10-01T12:14:39.983Z,0.70
2016-10-01T12:15:40.486Z,0.60
2016-10-01T12:16:40.999Z,1.70
2016-10-01T12:17:41.510Z,1.70
2016-10-01T12:18:42.019Z,0.40
2016-10-01T12:19:42.526Z,0.80
2016-10-01T12:20:43.037Z,0.80
2016-10-01T12:21:43.555Z,0.70
2016-10-01T12:22:44.211Z,0.50
2016-10-01T12:23:44.577Z,0.70
2016-10-01T12:24:45.086Z,0.30
2016-10-01T12:25:45.598Z,0.50
2016-10-01T12:26:46.111Z,0.40
2016-10-01T12:27:46.622Z,0.30
2016-10-01T12:28:47.133Z,0.20
2016-10-01T12:29:47.649Z,0.60
2016-10-01T12:30:48.160Z,0.20
2016-10-01T12:31:48.678Z,0.90
2016-10-01T12:32:49.333Z,0.60
2016-10-01T12:33:49.700Z,0.40
2016-10-01T12:34:50.232Z,0.50
2016-10-01T12:35:50.731Z,0.60
2016-10-01T12:36:51.271Z,0.80
2016-10-01T12:37:51.780Z,0.70
2016-10-01T12:38:52.281Z,0.70
2016-10-01T12:39:52.797Z,0.30
2016-10-01T12:40:53.311Z,0.40
2016-10-01T12:41:53.837Z,0.20
2016-10-01T12:42:54.343Z,0.60
2016-10-01T12:43:55.007Z,0.40
2016-10-01T12:44:55.361Z,0.10
2016-10-01T12:45:55.878Z,0.80
2016-10-01T12:46:56.394Z,0.80
2016-10-01T12:47:56.909Z,0.30
2016-10-01T12:48:57.417Z,0.10
2016-10-01T12:49:57.922Z,0.10
2016-10-01T12:50:58.434Z,0.20
2016-10-01T12:51:58.948Z,0.20
2016-10-01T12:52:59.455Z,1.20
2016-10-01T12:53:59.968Z,1.20
2016-10-01T12:55:00.482Z,0.20
2016-10-01T12:56:00.990Z,0.40
2016-10-01T12:57:01.504Z,0.50
2016-10-01T12:58:02.020Z,1.10
2016-10-01T12:59:58.689Z,0.60
2016-10-01T13:01:03.557Z,0.80
2016-10-01T13:02:04.071Z,0.30
2016-10-01T13:03:04.583Z,0.40
2016-10-01T13:04:05.099Z,0.30
2016-10-01T13:05:05.608Z,1.10
2016-10-01T13:06:06.122Z,1.00
2016-10-01T13:07:06.633Z,0.80
2016-10-01T13:08:07.143Z,1.10
2016-10-01T13:09:07.653Z,1.50
2016-10-01T13:10:08.174Z,0.60
2016-10-01T13:11:08.689Z,0.30
2016-10-01T13:12:09.211Z,0.20
2016-10-01T13:13:09.715Z,0.60
2016-10-01T13:14:10.230Z,0.60
2016-10-01T13:15:10.748Z,0.50
2016-10-01T13:16:11.259Z,0.50
2016-10-01T13:17:11.923Z,0.80
2016-10-01T13:18:12.313Z,0.80
2016-10-01T13:19:12.811Z,0.80
2016-10-01T13:20:13.326Z,0.90
2016-10-01T13:21:13.841Z,0.40
2016-10-01T13:22:14.347Z,0.40
2016-10-01T13:23:14.861Z,0.60
2016-10-01T13:24:15.380Z,0.60
2016-10-01T13:25:15.881Z,0.50
2016-10-01T13:26:16.539Z,0.10